createdAt,value
2023-04-22T00:02:13.258Z,98476.56
2023-04-22T00:04:41.806Z,98486.97
2023-04-22T00:07:08.625Z,98492.97
2023-04-22T00:09:35.366Z,98492.09
2023-04-22T00:12:02.488Z,98500.66
2023-04-22T00:14:29.149Z,98503.28
2023-04-22T00:16:56.176Z,98516.16
2023-04-22T00:19:23.248Z,98512.75
2023-04-22T00:21:50.246Z,98511.00
2023-04-22T00:24:16.955Z,98511.06
2023-04-22T00:26:43.554Z,98507.69
2023-04-22T00:29:10.309Z,98496.50
2023-04-22T00:31:36.810Z,98498.25
2023-04-22T00:34:03.311Z,98493.94
2023-04-22T00:36:29.823Z,98499.97
2023-04-22T00:38:56.411Z,98543.84
2023-04-22T00:41:23.321Z,98531.81
2023-04-22T00:43:50.903Z,98526.66
2023-04-22T00:46:17.445Z,98511.16
2023-04-22T00:48:44.796Z,98520.63
2023-04-22T00:51:11.293Z,98518.91
2023-04-22T00:53:37.810Z,98521.50
2023-04-22T00:56:04.616Z,98511.16
2023-04-22T00:58:31.352Z,98518.94
2023-04-22T01:00:58.714Z,98512.03
2023-04-22T01:03:28.525Z,98519.75
2023-04-22T01:05:56.181Z,98535.19
2023-04-22T01:08:27.935Z,98545.53
2023-04-22T01:10:54.581Z,98530.84
2023-04-22T01:13:21.302Z,98530.91
2023-04-22T01:15:48.025Z,98527.47
2023-04-22T01:18:15.613Z,98538.66
2023-04-22T01:20:42.386Z,98542.91
2023-04-22T01:23:19.451Z,98542.97
2023-04-22T01:25:47.005Z,98546.38
2023-04-22T01:28:14.549Z,98547.19
2023-04-22T01:30:42.059Z,98560.13
2023-04-22T01:33:09.953Z,98569.56
2023-04-22T01:35:37.382Z,98559.22
2023-04-22T01:38:05.364Z,98572.16
2023-04-22T01:40:32.632Z,98587.66
2023-04-22T01:43:00.646Z,98594.53
2023-04-22T01:45:27.777Z,98617.78
2023-04-22T01:47:55.412Z,98625.56
2023-04-22T01:50:23.135Z,98641.94
2023-04-22T01:52:50.228Z,98647.06
2023-04-22T01:55:17.053Z,98640.19
2023-04-22T01:57:43.716Z,98648.75
2023-04-22T02:00:10.950Z,98660.81
2023-04-22T02:02:37.613Z,98667.69
2023-04-22T02:05:06.644Z,98684.91
2023-04-22T02:07:33.357Z,98694.34
2023-04-22T02:09:59.881Z,98696.94
2023-04-22T02:12:26.356Z,98696.06
2023-04-22T02:14:52.887Z,98698.72
2023-04-22T02:17:19.372Z,98697.88
2023-04-22T02:19:45.965Z,98696.97
2023-04-22T02:22:12.495Z,98693.50
2023-04-22T02:24:39.128Z,98681.53
2023-04-22T02:27:06.303Z,98683.25
2023-04-22T02:29:32.878Z,98675.53
2023-04-22T02:32:00.019Z,98662.63
2023-04-22T02:34:27.008Z,98663.50
2023-04-22T02:36:53.636Z,98641.97
2023-04-22T02:39:20.491Z,98628.31
2023-04-22T02:41:47.012Z,98607.69
2023-04-22T02:44:13.574Z,98594.00
2023-04-22T02:46:40.191Z,98590.50
2023-04-22T02:49:06.820Z,98566.53
2023-04-22T02:51:33.375Z,98569.94
2023-04-22T02:54:00.274Z,98583.72
2023-04-22T02:56:27.397Z,98594.00
2023-04-22T02:58:53.919Z,98594.91
2023-04-22T03:01:20.505Z,98606.91
2023-04-22T03:03:47.227Z,98600.88
2023-04-22T03:06:13.932Z,98597.44
2023-04-22T03:08:40.518Z,98595.72
2023-04-22T03:11:07.051Z,98614.66
2023-04-22T03:13:33.595Z,98613.75
2023-04-22T03:16:00.273Z,98605.16
2023-04-22T03:18:26.915Z,98599.16
2023-04-22T03:20:53.404Z,98604.31
2023-04-22T03:23:19.879Z,98591.50
2023-04-22T03:25:46.441Z,98607.78
2023-04-22T03:28:12.920Z,98608.63
2023-04-22T03:30:39.446Z,98603.47
2023-04-22T03:33:06.068Z,98601.75
2023-04-22T03:35:32.607Z,98591.44
2023-04-22T03:37:59.103Z,98582.84
2023-04-22T03:40:25.702Z,98578.59
2023-04-22T03:42:52.188Z,98584.59
2023-04-22T03:45:18.782Z,98582.84
2023-04-22T03:47:45.740Z,98600.91
2023-04-22T03:50:12.268Z,98610.38
2023-04-22T03:52:39.097Z,98602.59
2023-04-22T03:55:06.203Z,98620.66
2023-04-22T03:57:32.694Z,98619.78
2023-04-22T03:59:59.156Z,98621.56
2023-04-22T04:02:25.790Z,98616.38
2023-04-22T04:04:52.630Z,98616.38
2023-04-22T04:07:19.487Z,98609.53
2023-04-22T04:09:46.310Z,98610.38
2023-04-22T04:12:12.829Z,98602.66
2023-04-22T04:14:39.874Z,98601.78
2023-04-22T04:17:10.344Z,98601.81
2023-04-22T04:19:38.047Z,98602.69
2023-04-22T04:22:05.077Z,98606.09
2023-04-22T04:24:31.575Z,98609.56
2023-04-22T04:26:58.177Z,98619.00
2023-04-22T04:29:25.206Z,98613.00
2023-04-22T04:31:51.967Z,98617.31
2023-04-22T04:34:19.200Z,98625.03
2023-04-22T04:36:46.551Z,98625.06
2023-04-22T04:39:13.063Z,98631.91
2023-04-22T04:41:41.228Z,98648.22
2023-04-22T04:44:07.785Z,98653.38
2023-04-22T04:46:34.659Z,98654.19
2023-04-22T04:49:02.401Z,98670.53
2023-04-22T04:51:29.009Z,98667.91
2023-04-22T04:53:55.594Z,98681.69
2023-04-22T04:56:22.111Z,98685.09
2023-04-22T04:58:48.676Z,98669.63
2023-04-22T05:01:15.261Z,98676.47
2023-04-22T05:03:42.377Z,98679.94
2023-04-22T05:06:09.119Z,98689.41
2023-04-22T05:08:35.847Z,98696.25
2023-04-22T05:11:02.396Z,98710.06
2023-04-22T05:13:29.121Z,98712.59
2023-04-22T05:15:55.846Z,98717.75
2023-04-22T05:18:22.410Z,98731.53
2023-04-22T05:20:49.102Z,98738.34
2023-04-22T05:23:15.647Z,98734.94
2023-04-22T05:25:42.398Z,98751.22
2023-04-22T05:28:09.614Z,98762.44
2023-04-22T05:30:36.264Z,98770.16
2023-04-22T05:33:03.018Z,98776.19
2023-04-22T05:35:29.681Z,98788.22
2023-04-22T05:37:56.203Z,98801.13
2023-04-22T05:40:22.846Z,98802.84
2023-04-22T05:42:49.347Z,98813.19
2023-04-22T05:45:16.128Z,98828.63
2023-04-22T05:47:42.654Z,98834.66
2023-04-22T05:50:09.409Z,98843.25
2023-04-22T05:52:35.914Z,98858.75
2023-04-22T05:55:02.441Z,98852.72
2023-04-22T05:57:29.146Z,98854.44
2023-04-22T05:59:55.616Z,98860.44
2023-04-22T06:02:22.297Z,98869.94
2023-04-22T06:04:49.405Z,98878.56
2023-04-22T06:07:16.407Z,98877.72
2023-04-22T06:09:43.217Z,98877.69
2023-04-22T06:12:10.949Z,98886.28
2023-04-22T06:14:37.470Z,98886.28
2023-04-22T06:17:04.156Z,98894.91
2023-04-22T06:19:30.707Z,98900.06
2023-04-22T06:21:57.212Z,98901.75
2023-04-22T06:24:23.746Z,98906.94
2023-04-22T06:26:50.215Z,98918.13
2023-04-22T06:29:19.490Z,98919.00
2023-04-22T06:31:46.562Z,98920.72
2023-04-22T06:34:13.115Z,98923.31
2023-04-22T06:36:39.690Z,98923.28
2023-04-22T06:39:06.527Z,98928.44
2023-04-22T06:41:33.460Z,98931.88
2023-04-22T06:44:00.021Z,98937.03
2023-04-22T06:46:26.639Z,98943.06
2023-04-22T06:48:53.127Z,98946.53
2023-04-22T06:51:19.663Z,98951.66
2023-04-22T06:53:46.424Z,98956.81
2023-04-22T06:56:13.023Z,98963.69
2023-04-22T06:58:39.623Z,98967.13
2023-04-22T07:01:06.176Z,98974.00
2023-04-22T07:03:32.862Z,98988.63
2023-04-22T07:06:00.439Z,98978.31
2023-04-22T07:08:27.023Z,98983.47
2023-04-22T07:10:54.022Z,98993.78
2023-04-22T07:13:20.665Z,98996.34
2023-04-22T07:15:47.333Z,99001.53
2023-04-22T07:18:13.818Z,98992.97
2023-04-22T07:20:40.347Z,98985.25
2023-04-22T07:23:06.836Z,98992.13
2023-04-22T07:25:33.312Z,98983.53
2023-04-22T07:27:59.936Z,98986.97
2023-04-22T07:30:26.470Z,98996.44
2023-04-22T07:32:53.247Z,98997.25
2023-04-22T07:35:19.941Z,99004.13
2023-04-22T07:37:46.513Z,99001.56
2023-04-22T07:40:14.069Z,98993.00
2023-04-22T07:42:40.840Z,98991.25
2023-04-22T07:45:07.728Z,98969.81
2023-04-22T07:47:34.461Z,98954.34
2023-04-22T07:50:01.131Z,98949.19
2023-04-22T07:52:27.663Z,98947.41
2023-04-22T07:54:54.181Z,98965.47
2023-04-22T07:57:22.867Z,98951.78
2023-04-22T07:59:49.875Z,98935.44
2023-04-22T08:02:16.480Z,98935.38
2023-04-22T08:04:43.344Z,98949.03
2023-04-22T08:07:26.826Z,98981.69
2023-04-22T08:09:56.836Z,99022.09
2023-04-22T08:12:24.121Z,99039.28
2023-04-22T08:14:50.773Z,99052.22
2023-04-22T08:17:17.420Z,99068.47
2023-04-22T08:19:43.947Z,99084.00
2023-04-22T08:22:10.436Z,99087.41
2023-04-22T08:24:36.964Z,99098.56
2023-04-22T08:27:03.542Z,99110.66
2023-04-22T08:29:30.228Z,99114.94
2023-04-22T08:31:56.767Z,99126.97
2023-04-22T08:34:24.884Z,99131.25
2023-04-22T08:36:51.575Z,99131.19
2023-04-22T08:39:18.342Z,99157.91
2023-04-22T08:41:45.873Z,99151.00
2023-04-22T08:44:14.373Z,99157.03
2023-04-22T08:46:46.590Z,99164.78
2023-04-22T08:49:16.382Z,99162.22
2023-04-22T08:51:44.138Z,99159.59
2023-04-22T08:54:11.423Z,99163.91
2023-04-22T08:56:43.390Z,99150.97
2023-04-22T08:59:11.550Z,99156.13
2023-04-22T09:01:42.192Z,99157.88
2023-04-22T09:04:11.355Z,99165.66
2023-04-22T09:06:39.176Z,99166.47
2023-04-22T09:09:05.954Z,99173.38
2023-04-22T09:11:33.466Z,99146.69
2023-04-22T09:14:00.287Z,99128.56
2023-04-22T09:16:29.870Z,99114.78
2023-04-22T09:18:57.443Z,99113.91
2023-04-22T09:21:32.085Z,99115.59
2023-04-22T09:24:02.390Z,99122.53
2023-04-22T09:26:28.919Z,99118.25
2023-04-22T09:29:01.131Z,99127.72
2023-04-22T09:31:28.693Z,99127.72
2023-04-22T09:34:00.647Z,99128.59
2023-04-22T09:36:28.965Z,99150.16
2023-04-22T09:38:56.296Z,99148.41
2023-04-22T09:41:39.570Z,99146.69
2023-04-22T09:44:14.797Z,99157.03
2023-04-22T09:46:45.019Z,99163.94
2023-04-22T09:49:11.763Z,99158.78
2023-04-22T09:51:42.032Z,99155.38
2023-04-22T09:54:10.634Z,99154.50
2023-04-22T09:56:48.668Z,99155.41
2023-04-22T09:59:29.909Z,99167.44
2023-04-22T10:02:09.488Z,99162.28
2023-04-22T10:04:36.610Z,99161.38
2023-04-22T10:07:03.207Z,99159.63
2023-04-22T10:09:29.912Z,99153.59
2023-04-22T10:12:01.081Z,99159.59
2023-04-22T10:14:28.165Z,99157.03
2023-04-22T10:16:59.954Z,99155.34
2023-04-22T10:19:27.330Z,99161.31
2023-04-22T10:21:57.330Z,99159.63
2023-04-22T10:24:27.327Z,99168.25
2023-04-22T10:27:02.817Z,99177.72
2023-04-22T10:29:38.658Z,99176.81
2023-04-22T10:32:08.498Z,99183.72
2023-04-22T10:34:38.987Z,99186.31
2023-04-22T10:37:09.480Z,99195.81
2023-04-22T10:39:36.398Z,99199.22
2023-04-22T10:42:02.860Z,99186.31
2023-04-22T10:44:44.921Z,99200.09
2023-04-22T10:47:11.594Z,99203.53
2023-04-22T10:49:38.481Z,99206.13
2023-04-22T10:52:07.836Z,99202.66
2023-04-22T10:54:37.088Z,99206.16
2023-04-22T10:57:11.854Z,99207.84
2023-04-22T10:59:51.793Z,99207.84
2023-04-22T11:02:19.499Z,99213.91
2023-04-22T11:04:47.067Z,99217.34
2023-04-22T11:07:23.087Z,99216.47
2023-04-22T11:09:52.549Z,99221.66
2023-04-22T11:12:51.624Z,99213.00
2023-04-22T11:15:19.972Z,99220.78
2023-04-22T11:17:48.259Z,99231.09
2023-04-22T11:20:18.541Z,99235.41
2023-04-22T11:22:51.862Z,99232.81
2023-04-22T11:25:19.013Z,99238.00
2023-04-22T11:27:45.970Z,99233.63
2023-04-22T11:30:18.007Z,99225.03
2023-04-22T11:32:56.013Z,99226.78
2023-04-22T11:35:22.527Z,99234.50
2023-04-22T11:37:58.920Z,99229.28
2023-04-22T11:40:40.653Z,99226.72
2023-04-22T11:43:10.082Z,99241.38
2023-04-22T11:45:38.529Z,99241.38
2023-04-22T11:48:07.685Z,99224.16
2023-04-22T11:50:36.840Z,99237.97
2023-04-22T11:53:15.505Z,99235.41
2023-04-22T11:55:43.314Z,99230.22
2023-04-22T11:58:09.766Z,99244.00
2023-04-22T12:00:49.277Z,99249.16
2023-04-22T12:03:19.340Z,99247.44
2023-04-22T12:05:47.258Z,99246.56
2023-04-22T12:08:16.861Z,99246.56
2023-04-22T12:10:48.572Z,99255.28
2023-04-22T12:13:30.234Z,99250.97
2023-04-22T12:16:04.540Z,99200.31
2023-04-22T12:18:31.884Z,99149.53
2023-04-22T12:21:04.595Z,99041.19
2023-04-22T12:23:51.373Z,98945.78
2023-04-22T12:26:20.795Z,98962.94
2023-04-22T12:28:48.238Z,98930.34
2023-04-22T12:31:15.412Z,98908.00
2023-04-22T12:33:42.212Z,98932.00
2023-04-22T12:36:09.817Z,98907.16
2023-04-22T12:38:36.515Z,98881.44
2023-04-22T12:41:04.675Z,98865.97
2023-04-22T12:43:36.333Z,98852.19
2023-04-22T12:46:04.068Z,98871.91
2023-04-22T12:48:31.080Z,98901.09
2023-04-22T12:50:58.568Z,98894.28
2023-04-22T12:53:27.364Z,98869.38
2023-04-22T12:55:54.292Z,98871.13
2023-04-22T12:58:20.905Z,98851.38
2023-04-22T13:00:47.632Z,98844.50
2023-04-22T13:03:14.259Z,98847.91
2023-04-22T13:05:41.080Z,98847.06
2023-04-22T13:08:08.335Z,98853.06
2023-04-22T13:10:36.101Z,98853.09
2023-04-22T13:15:34.079Z,98861.69
2023-04-22T13:18:00.691Z,98861.69
2023-04-22T13:20:27.333Z,98862.53
2023-04-22T13:22:53.893Z,98866.81
2023-04-22T13:25:20.578Z,98867.66
2023-04-22T13:27:47.111Z,98859.06
2023-04-22T13:30:14.118Z,98873.69
2023-04-22T13:32:41.248Z,98879.66
2023-04-22T13:35:09.286Z,98879.69
2023-04-22T13:37:36.896Z,98883.97
2023-04-22T13:40:05.978Z,98890.81
2023-04-22T13:42:32.644Z,98893.38
2023-04-22T13:44:59.163Z,98888.22
2023-04-22T13:47:25.764Z,98900.22
2023-04-22T13:49:52.462Z,98900.06
2023-04-22T13:52:18.935Z,98888.03
2023-04-22T13:54:46.106Z,98899.09
2023-04-22T13:57:13.197Z,98905.91
2023-04-22T13:59:41.747Z,98924.69
2023-04-22T14:02:08.998Z,98946.16
2023-04-22T14:04:35.782Z,98963.22
2023-04-22T14:07:02.655Z,98955.63
2023-04-22T14:09:29.243Z,98948.88
2023-04-22T14:11:55.838Z,98967.72
2023-04-22T14:14:22.404Z,98979.78
2023-04-22T14:16:49.188Z,98991.88
2023-04-22T14:19:15.815Z,98992.84
2023-04-22T14:21:42.320Z,98987.63
2023-04-22T14:24:08.962Z,98999.56
2023-04-22T14:26:35.459Z,98993.66
2023-04-22T14:29:02.127Z,99010.00
2023-04-22T14:31:28.629Z,99012.50
2023-04-22T14:33:55.438Z,99025.28
2023-04-22T14:36:21.953Z,99025.41
2023-04-22T14:38:48.613Z,99037.41
2023-04-22T14:41:15.478Z,99023.66
2023-04-22T14:43:42.021Z,99026.22
2023-04-22T14:46:08.624Z,99027.91
2023-04-22T14:48:35.584Z,99030.56
2023-04-22T14:51:02.448Z,99027.16
2023-04-22T14:53:29.060Z,99036.59
2023-04-22T14:55:56.530Z,99028.88
2023-04-22T14:58:23.501Z,99032.25
2023-04-22T15:00:50.577Z,99025.34
2023-04-22T15:03:17.992Z,99019.41
2023-04-22T15:05:45.514Z,99018.59
2023-04-22T15:08:11.987Z,99013.41
2023-04-22T15:10:38.560Z,99015.88
2023-04-22T15:13:05.114Z,99004.72
2023-04-22T15:15:31.877Z,99003.00
2023-04-22T15:17:58.452Z,98999.63
2023-04-22T15:20:25.092Z,98997.06
2023-04-22T15:22:52.058Z,98991.03
2023-04-22T15:25:19.029Z,98987.72
2023-04-22T15:27:46.110Z,98991.22
2023-04-22T15:30:12.929Z,98989.41
2023-04-22T15:32:39.483Z,99002.25
2023-04-22T15:35:07.949Z,98995.47
2023-04-22T15:37:34.491Z,98997.22
2023-04-22T15:40:01.017Z,98998.88
2023-04-22T15:42:27.609Z,98995.50
2023-04-22T15:44:54.094Z,98980.91
2023-04-22T15:47:20.767Z,98980.09
2023-04-22T15:49:47.447Z,98976.69
2023-04-22T15:52:13.972Z,98981.81
2023-04-22T15:54:40.594Z,98975.84
2023-04-22T15:57:07.169Z,98968.09
2023-04-22T15:59:33.689Z,98955.22
2023-04-22T16:02:00.798Z,98958.69
2023-04-22T16:04:27.840Z,98952.69
2023-04-22T16:06:57.191Z,98956.09
2023-04-22T16:09:24.197Z,98954.38
2023-04-22T16:11:51.444Z,98958.66
2023-04-22T16:14:18.198Z,98952.66
2023-04-22T16:16:45.747Z,98948.38
2023-04-22T16:19:12.628Z,98946.63
2023-04-22T16:21:39.183Z,98938.06
2023-04-22T16:24:06.114Z,98936.34
2023-04-22T16:26:32.671Z,98932.91
2023-04-22T16:28:59.250Z,98926.91
2023-04-22T16:31:25.942Z,98925.19
2023-04-22T16:33:52.874Z,98926.06
2023-04-22T16:36:19.442Z,98911.44
2023-04-22T16:38:46.004Z,98889.97
2023-04-22T16:41:12.686Z,98896.84
2023-04-22T16:43:41.073Z,98890.84
2023-04-22T16:46:08.035Z,98896.84
2023-04-22T16:48:36.067Z,98894.22
2023-04-22T16:51:02.604Z,98884.78
2023-04-22T16:53:29.212Z,98873.66
2023-04-22T16:55:56.689Z,98873.66
2023-04-22T16:58:23.553Z,98872.81
2023-04-22T17:00:50.174Z,98871.97
2023-04-22T17:03:16.870Z,98879.69
2023-04-22T17:05:43.517Z,98880.56
2023-04-22T17:08:10.160Z,98880.56
2023-04-22T17:10:41.344Z,98884.84
2023-04-22T17:13:07.938Z,98891.72
2023-04-22T17:15:34.506Z,98895.97
2023-04-22T17:18:02.488Z,98908.00
2023-04-22T17:20:29.076Z,98898.56
2023-04-22T17:22:55.819Z,98910.56
2023-04-22T17:25:22.316Z,98908.00
2023-04-22T17:27:48.781Z,98912.28
2023-04-22T17:30:15.354Z,98909.72
2023-04-22T17:32:41.965Z,98903.69
2023-04-22T17:35:08.871Z,98911.41
2023-04-22T17:37:35.489Z,98911.47
2023-04-22T17:40:03.432Z,98900.28
2023-04-22T17:42:44.669Z,98907.16
2023-04-22T17:45:12.315Z,98899.44
2023-04-22T17:47:38.891Z,98908.88
2023-04-22T17:50:05.883Z,98912.31
2023-04-22T17:52:32.444Z,98914.91
2023-04-22T17:55:00.019Z,98918.34
2023-04-22T17:57:28.363Z,98925.22
2023-04-22T17:59:55.092Z,98927.81
2023-04-22T18:02:22.358Z,98926.91
2023-04-22T18:04:48.986Z,98921.81
2023-04-22T18:07:15.681Z,98926.09
2023-04-22T18:09:42.836Z,98920.94
2023-04-22T18:12:09.912Z,98918.38
2023-04-22T18:14:36.631Z,98924.34
2023-04-22T18:17:03.495Z,98912.31
2023-04-22T18:19:30.070Z,98917.47
2023-04-22T18:21:59.996Z,98913.16
2023-04-22T18:24:28.024Z,98917.47
2023-04-22T18:26:54.574Z,98927.78
2023-04-22T18:29:21.136Z,98926.03
2023-04-22T18:31:47.817Z,98922.59
2023-04-22T18:34:15.837Z,98925.19
2023-04-22T18:36:42.600Z,98922.59
2023-04-22T18:39:09.694Z,98934.59
2023-04-22T18:41:38.595Z,98929.47
2023-04-22T18:44:05.552Z,98929.47
2023-04-22T18:46:32.210Z,98936.31
2023-04-22T18:48:59.068Z,98938.88
2023-04-22T18:51:25.738Z,98939.75
2023-04-22T18:53:52.430Z,98948.31
2023-04-22T18:56:18.972Z,98941.44
2023-04-22T18:58:45.569Z,98936.28
2023-04-22T19:01:12.150Z,98943.16
2023-04-22T19:03:39.628Z,98947.44
2023-04-22T19:06:06.924Z,98952.59
2023-04-22T19:08:34.002Z,98963.75
2023-04-22T19:11:01.860Z,98969.75
2023-04-22T19:13:30.154Z,98970.63
2023-04-22T19:15:57.866Z,98970.63
2023-04-22T19:18:24.461Z,98969.75
2023-04-22T19:20:51.081Z,98974.88
2023-04-22T19:23:17.696Z,98986.94
2023-04-22T19:25:44.329Z,98981.75
2023-04-22T19:28:10.897Z,98991.19
2023-04-22T19:30:37.444Z,98991.22
2023-04-22T19:33:04.168Z,98991.22
2023-04-22T19:35:31.004Z,98995.47
2023-04-22T19:37:57.549Z,98994.59
2023-04-22T19:40:24.099Z,98998.03
2023-04-22T19:42:51.092Z,98999.75
2023-04-22T19:45:17.846Z,98998.88
2023-04-22T19:47:45.250Z,98992.84
2023-04-22T19:50:12.375Z,98998.88
2023-04-22T19:52:40.836Z,98983.44
2023-04-22T19:55:09.279Z,98989.41
2023-04-22T19:57:37.298Z,98996.25
2023-04-22T20:00:07.311Z,98998.75
2023-04-22T20:02:38.000Z,98986.81
2023-04-22T20:05:05.835Z,98991.97
2023-04-22T20:07:33.816Z,98988.53
2023-04-22T20:10:02.261Z,98988.50
2023-04-22T20:12:29.430Z,98993.59
2023-04-22T20:14:57.939Z,98994.47
2023-04-22T20:17:25.502Z,98998.75
2023-04-22T20:19:52.842Z,98989.31
2023-04-22T20:22:22.072Z,98987.63
2023-04-22T20:25:02.063Z,99003.00
2023-04-22T20:27:32.641Z,98993.59
2023-04-22T20:30:00.141Z,98995.28
2023-04-22T20:32:27.989Z,98999.56
2023-04-22T20:34:55.911Z,98998.72
2023-04-22T20:37:23.854Z,99003.00
2023-04-22T20:39:51.474Z,98987.56
2023-04-22T20:42:19.148Z,98994.41
2023-04-22T20:44:46.391Z,98996.97
2023-04-22T20:47:13.757Z,98987.56
2023-04-22T20:49:41.168Z,98983.25
2023-04-22T20:52:08.657Z,98982.41
2023-04-22T20:54:36.181Z,98970.38
2023-04-22T20:57:04.633Z,98971.22
2023-04-22T20:59:31.358Z,98973.81
2023-04-22T21:01:58.927Z,98971.19
2023-04-22T21:04:26.988Z,98972.06
2023-04-22T21:06:55.295Z,98966.91
2023-04-22T21:09:24.806Z,98973.81
2023-04-22T21:11:52.769Z,98978.09
2023-04-22T21:14:22.174Z,98983.22
2023-04-22T21:17:11.749Z,98988.28
2023-04-22T21:19:40.985Z,98989.13
2023-04-22T21:22:08.700Z,98985.72
2023-04-22T21:24:35.621Z,98984.88
2023-04-22T21:27:02.962Z,98987.38
2023-04-22T21:29:30.005Z,98979.66
2023-04-22T21:32:08.171Z,98985.66
2023-04-22T21:34:35.788Z,98984.78
2023-04-22T21:37:02.593Z,98979.66
2023-04-22T21:39:29.896Z,98990.78
2023-04-22T21:41:56.713Z,98983.91
2023-04-22T21:44:23.241Z,98989.03
2023-04-22T21:46:49.815Z,98983.03
2023-04-22T21:49:16.333Z,98983.88
2023-04-22T21:51:43.005Z,98977.94
2023-04-22T21:54:09.774Z,98977.84
2023-04-22T21:56:36.395Z,98972.72
2023-04-22T21:59:02.953Z,98976.09
2023-04-22T22:01:29.459Z,98966.72
2023-04-22T22:03:56.137Z,98965.88
2023-04-22T22:06:22.915Z,98960.66
2023-04-22T22:08:49.426Z,98953.78
2023-04-22T22:11:27.612Z,98959.78
2023-04-22T22:13:57.165Z,98952.06
2023-04-22T22:16:24.725Z,98958.03
2023-04-22T22:18:51.920Z,98960.66
2023-04-22T22:21:18.739Z,98954.63
2023-04-22T22:23:45.319Z,98959.75
2023-04-22T22:26:12.805Z,98958.91
2023-04-22T22:28:39.822Z,98955.44
2023-04-22T22:31:06.918Z,98946.91
2023-04-22T22:33:33.559Z,98955.44
2023-04-22T22:36:00.054Z,98949.44
2023-04-22T22:38:26.549Z,98952.81
2023-04-22T22:40:53.089Z,98957.97
2023-04-22T22:43:19.618Z,98948.50
2023-04-22T22:45:46.453Z,98944.22
2023-04-22T22:48:13.374Z,98950.16
2023-04-22T22:50:40.708Z,98944.16
2023-04-22T22:53:07.233Z,98940.72
2023-04-22T22:55:34.194Z,98929.63
2023-04-22T22:58:00.950Z,98935.66
2023-04-22T23:00:27.680Z,98929.59
2023-04-22T23:02:54.563Z,98917.63
2023-04-22T23:05:21.437Z,98920.22
2023-04-22T23:07:47.924Z,98913.41
2023-04-22T23:10:15.023Z,98908.28
2023-04-22T23:12:41.539Z,98903.16
2023-04-22T23:15:08.945Z,98904.84
2023-04-22T23:17:36.632Z,98897.91
2023-04-22T23:20:04.446Z,98897.03
2023-04-22T23:22:32.219Z,98897.00
2023-04-22T23:24:59.170Z,98891.88
2023-04-22T23:27:26.043Z,98890.09
2023-04-22T23:29:52.858Z,98885.75
2023-04-22T23:32:19.767Z,98887.53
2023-04-22T23:34:49.599Z,98885.00
2023-04-22T23:37:18.933Z,98875.47
2023-04-22T23:39:45.603Z,98880.69
2023-04-22T23:42:12.294Z,98876.28
2023-04-22T23:44:39.130Z,98879.72
2023-04-22T23:47:06.370Z,98875.34
2023-04-22T23:49:32.935Z,98869.34
2023-04-22T23:51:59.636Z,98868.53
2023-04-22T23:54:26.999Z,98857.38
2023-04-22T23:56:53.928Z,98849.66
2023-04-22T23:59:20.711Z,98845.44
